Portada
METAR-TAF:

METAR-TAF

Aeroports :

Agen, França

latitud: 44-11N, longitud: 000-36E, altitud: 61 m

Observació

L'informe es va fer fa 25 minuts, a les 21:30 UTC
Vent 5 kt del Oest/Sud-Oest
Temperatura 24°C
Humitat 54%
Pressió 1017 hPa
Visibilitat 10 km o més
sense núvols per sota de 1500 mi sense presència de cumulonimbus.

METAR: LFBA 242130Z AUTO 25005KT CAVOK 24/14 Q1017

Hora: 23:55 (21:55 UTC)

Pronòstic

L'informe es va fer fa 7 hores i 55 minuts, a les 14:00 UTC
Pronòstic vàlid del 24 a les 15 UTC al 24 a les 24 UTC
Vent 5 kt del Sud/Sud-Oest
Visibilitat 10 km o més
sense núvols per sota de 1500 mi sense presència de cumulonimbus.
Evolucionant progressivament
l' 24 a les 20 UTC al 24 a les 22 UTC
Vent 10 kt del Oest

TAF: LFBA 241400Z 2415/2424 21005KT CAVOK BECMG 2420/2422 27010KT

Observacions i pronòstics meteorològics de més de 4000 aeroports (METAR i TAF).

Les estacions disponibles són els punts grocs i vermells al mapa.

Posi el ratolí al punt desitjat per veure el nom de l'estació.

Feu clic per veure les observacions i els pronòstics meteorològics.

Per canviar el mapa: feu clic els botons verds amb una creu de color negre per apropar; al botó verd amb un guió per allunyar la imatge; o en les fletxes verdes per a mapes adjacents.


METAR-TAF: